Time;durP1;ratioP1;P1;durP2;ratioP2;P2;SDS_P1;SDS_P2;PMS_P1;PMS_P2;Temp;Humidity;BMP_temperature;BMP_pressure;BME280_temperature;BME280_humidity;BME280_pressure;Samples;Min_cycle;Max_cycle;Signal;HPM_P1;HPM_P2
2022/05/22 00:01:08;;;;;;;13.50;2.00;;;;;;;;;;5071147;28;20741;-71
2022/05/22 00:03:36;;;;;;;7.30;2.23;;;;;;;;;;5058323;28;20482;-72
2022/05/22 00:06:07;;;;;;;4.73;1.67;;;;;;;;;;5057737;28;20469;-71
2022/05/22 00:08:37;;;;;;;8.63;2.60;;;;;;;;;;5056626;28;20858;-69
2022/05/22 00:11:05;;;;;;;8.03;2.13;;;;;;;;;;5056431;28;20842;-70
2022/05/22 00:13:32;;;;;;;10.40;2.40;;;;;;;;;;5056936;28;20453;-70
2022/05/22 00:18:45;;;;;;;11.10;2.60;;;;;;;;;;5054970;28;20432;-71
2022/05/22 00:21:14;;;;;;;5.77;2.07;;;;;;;;;;5057108;28;20449;-71
2022/05/22 00:23:44;;;;;;;21.33;2.50;;;;;;;;;;5056325;28;20827;-72
2022/05/22 00:26:12;;;;;;;10.10;2.67;;;;;;;;;;5056934;28;20460;-71
2022/05/22 00:28:39;;;;;;;10.23;2.43;;;;;;;;;;5056266;28;20518;-71
2022/05/22 00:31:07;;;;;;;8.03;2.27;;;;;;;;;;5056802;28;20492;-71
2022/05/22 00:33:35;;;;;;;11.40;2.50;;;;;;;;;;5057663;28;20974;-71
2022/05/22 00:36:03;;;;;;;11.03;2.03;;;;;;;;;;5057297;28;20460;-71
2022/05/22 00:38:32;;;;;;;10.23;2.30;;;;;;;;;;5055257;28;20449;-71
2022/05/22 00:41:00;;;;;;;11.57;2.80;;;;;;;;;;5056089;28;20453;-71
2022/05/22 00:43:29;;;;;;;12.60;2.30;;;;;;;;;;5056052;28;20846;-71
2022/05/22 00:45:57;;;;;;;7.50;2.77;;;;;;;;;;5066919;28;20495;-70
2022/05/22 00:48:24;;;;;;;9.90;2.90;;;;;;;;;;5062204;28;20462;-69
2022/05/22 00:50:53;;;;;;;11.20;2.20;;;;;;;;;;5068410;28;20959;-71
2022/05/22 00:53:22;;;;;;;5.10;2.27;;;;;;;;;;5076332;28;20476;-71
2022/05/22 00:55:52;;;;;;;10.93;2.50;;;;;;;;;;5075616;28;20457;-71
2022/05/22 00:58:21;;;;;;;7.83;1.93;;;;;;;;;;5075380;28;20862;-71
2022/05/22 01:00:49;;;;;;;8.63;2.50;;;;;;;;;;5076951;28;20463;-70
2022/05/22 01:03:28;;;;;;;4.90;2.03;;;;;;;;;;5074819;28;20449;-71
2022/05/22 01:05:56;;;;;;;9.10;2.80;;;;;;;;;;5076054;28;20514;-70
2022/05/22 01:08:24;;;;;;;11.73;4.50;;;;;;;;;;5075786;28;20445;-71
2022/05/22 01:10:56;;;;;;;10.40;2.80;;;;;;;;;;5074986;28;20919;-71
2022/05/22 01:13:31;;;;;;;6.07;2.93;;;;;;;;;;5075305;28;20448;-70
2022/05/22 01:16:00;;;;;;;8.93;3.50;;;;;;;;;;5075508;28;20444;-71
2022/05/22 01:18:27;;;;;;;10.17;2.83;;;;;;;;;;5075705;28;20872;-71
2022/05/22 01:20:56;;;;;;;13.00;3.03;;;;;;;;;;5075107;28;20441;-70
2022/05/22 01:23:25;;;;;;;6.50;3.97;;;;;;;;;;5074686;28;20457;-70
2022/05/22 01:25:53;;;;;;;10.10;3.27;;;;;;;;;;5075157;28;20456;-71
2022/05/22 01:28:22;;;;;;;10.67;3.30;;;;;;;;;;5075179;28;20453;-71
2022/05/22 01:30:49;;;;;;;12.23;3.63;;;;;;;;;;5075006;28;20735;-71
2022/05/22 01:33:17;;;;;;;7.90;2.77;;;;;;;;;;5074928;28;20449;-71
2022/05/22 01:35:45;;;;;;;5.23;2.17;;;;;;;;;;5075471;28;20756;-71
2022/05/22 01:38:13;;;;;;;13.67;3.87;;;;;;;;;;5075065;28;20759;-70
2022/05/22 01:40:42;;;;;;;11.07;3.30;;;;;;;;;;5075192;28;20647;-71
2022/05/22 01:43:09;;;;;;;5.57;2.40;;;;;;;;;;5076237;28;20737;-70
2022/05/22 01:45:37;;;;;;;9.53;3.50;;;;;;;;;;5058485;28;20457;-70
2022/05/22 01:48:05;;;;;;;8.10;2.50;;;;;;;;;;5055862;28;20465;-71
2022/05/22 01:50:36;;;;;;;6.73;2.10;;;;;;;;;;5055426;28;20898;-70
2022/05/22 01:53:04;;;;;;;12.00;2.97;;;;;;;;;;5055399;28;20823;-71
2022/05/22 01:55:31;;;;;;;24.47;3.10;;;;;;;;;;5055443;28;20453;-69
2022/05/22 01:58:01;;;;;;;6.77;2.60;;;;;;;;;;5055323;28;21189;-69
2022/05/22 02:00:30;;;;;;;7.10;3.00;;;;;;;;;;5054640;28;20872;-71
2022/05/22 02:02:58;;;;;;;4.87;2.43;;;;;;;;;;5054884;28;20536;-68
2022/05/22 02:05:25;;;;;;;9.00;2.53;;;;;;;;;;5054799;28;20797;-69
2022/05/22 02:10:40;;;;;;;4.73;1.93;;;;;;;;;;5055186;28;20484;-71
2022/05/22 02:13:09;;;;;;;7.00;2.70;;;;;;;;;;5054901;28;20461;-70
2022/05/22 02:15:37;;;;;;;6.87;2.27;;;;;;;;;;5055764;28;20458;-71
2022/05/22 02:18:05;;;;;;;6.23;2.43;;;;;;;;;;5055356;28;20459;-71
2022/05/22 02:20:33;;;;;;;9.37;2.77;;;;;;;;;;5055676;28;20456;-71
2022/05/22 02:23:01;;;;;;;4.27;3.10;;;;;;;;;;5056078;28;20459;-71
2022/05/22 02:25:30;;;;;;;8.10;2.47;;;;;;;;;;5058076;28;20473;-71
2022/05/22 02:27:58;;;;;;;7.67;2.60;;;;;;;;;;5074702;28;20909;-70
2022/05/22 02:30:29;;;;;;;10.43;3.00;;;;;;;;;;5065826;28;20959;-70
2022/05/22 02:33:00;;;;;;;10.60;2.83;;;;;;;;;;5059432;28;20518;-70
2022/05/22 02:35:28;;;;;;;8.27;2.70;;;;;;;;;;5071587;28;20463;-71
2022/05/22 02:37:57;;;;;;;9.57;2.63;;;;;;;;;;5055151;28;20938;-71
2022/05/22 02:40:25;;;;;;;9.90;2.67;;;;;;;;;;5065252;28;20544;-71
2022/05/22 02:42:54;;;;;;;5.63;2.80;;;;;;;;;;5069190;28;20457;-70
2022/05/22 02:45:22;;;;;;;11.70;4.37;;;;;;;;;;5055157;28;20459;-69
2022/05/22 02:47:52;;;;;;;5.13;2.40;;;;;;;;;;5055275;28;20461;-71
2022/05/22 02:50:21;;;;;;;11.03;3.00;;;;;;;;;;5063599;28;20453;-71
2022/05/22 02:52:49;;;;;;;9.67;2.60;;;;;;;;;;5062066;28;20461;-70
2022/05/22 02:55:18;;;;;;;9.40;3.40;;;;;;;;;;5055335;28;20466;-71
2022/05/22 02:57:46;;;;;;;10.37;2.93;;;;;;;;;;5054525;28;20807;-70
2022/05/22 03:00:14;;;;;;;8.37;3.50;;;;;;;;;;5054743;28;20544;-71
2022/05/22 03:02:45;;;;;;;10.73;2.77;;;;;;;;;;5065671;28;20547;-71
2022/05/22 03:05:14;;;;;;;7.33;2.73;;;;;;;;;;5062777;28;20473;-71
2022/05/22 03:07:42;;;;;;;5.67;2.73;;;;;;;;;;5057938;28;20515;-70
2022/05/22 03:10:11;;;;;;;7.27;2.97;;;;;;;;;;5066543;28;20464;-70
2022/05/22 03:12:42;;;;;;;7.20;2.80;;;;;;;;;;5061127;28;20892;-71
2022/05/22 03:15:11;;;;;;;7.10;3.13;;;;;;;;;;5071486;28;20481;-71
2022/05/22 03:17:38;;;;;;;9.50;3.10;;;;;;;;;;5066814;28;20461;-71
2022/05/22 03:20:10;;;;;;;8.60;2.87;;;;;;;;;;5064650;28;20444;-71
2022/05/22 03:22:39;;;;;;;7.90;2.97;;;;;;;;;;5059160;28;20463;-71
2022/05/22 03:25:09;;;;;;;8.53;3.93;;;;;;;;;;5071887;28;20884;-71
2022/05/22 03:27:37;;;;;;;9.43;3.27;;;;;;;;;;5061247;28;20531;-70
2022/05/22 03:30:05;;;;;;;6.17;2.90;;;;;;;;;;5077292;28;20944;-71
2022/05/22 03:32:33;;;;;;;8.10;3.00;;;;;;;;;;5061711;28;20485;-70
2022/05/22 03:35:01;;;;;;;8.20;2.90;;;;;;;;;;5077713;28;20452;-71
2022/05/22 03:37:29;;;;;;;12.50;3.27;;;;;;;;;;5068921;28;20868;-70
2022/05/22 03:39:58;;;;;;;6.37;3.00;;;;;;;;;;5058658;28;20480;-70
2022/05/22 03:42:25;;;;;;;6.33;2.70;;;;;;;;;;5057260;28;20479;-71
2022/05/22 03:44:53;;;;;;;8.03;3.43;;;;;;;;;;5058974;28;20484;-70
2022/05/22 03:47:21;;;;;;;7.63;2.97;;;;;;;;;;5065484;28;20460;-71
2022/05/22 03:49:49;;;;;;;6.00;2.80;;;;;;;;;;5058013;28;20953;-71
2022/05/22 03:52:17;;;;;;;7.43;4.30;;;;;;;;;;5058053;28;20570;-70
2022/05/22 03:54:45;;;;;;;12.67;3.47;;;;;;;;;;5057237;28;20530;-71
2022/05/22 03:57:14;;;;;;;4.80;2.30;;;;;;;;;;5057475;28;20730;-70
2022/05/22 03:59:42;;;;;;;9.83;3.00;;;;;;;;;;5056962;28;20850;-70
2022/05/22 04:02:10;;;;;;;6.23;2.83;;;;;;;;;;5056468;28;20454;-71
2022/05/22 04:04:39;;;;;;;6.67;3.60;;;;;;;;;;5058424;28;21016;-71
2022/05/22 04:07:08;;;;;;;7.70;2.70;;;;;;;;;;5057776;28;20465;-71
2022/05/22 04:09:35;;;;;;;11.30;3.40;;;;;;;;;;5057002;28;20449;-70
2022/05/22 04:12:07;;;;;;;8.50;3.10;;;;;;;;;;5057075;28;20571;-70
2022/05/22 04:14:36;;;;;;;9.40;2.43;;;;;;;;;;5057960;28;20454;-71
2022/05/22 04:17:04;;;;;;;7.77;3.30;;;;;;;;;;5056984;28;20535;-70
2022/05/22 04:19:32;;;;;;;9.30;3.03;;;;;;;;;;5056368;28;20536;-71
2022/05/22 04:22:00;;;;;;;7.47;3.00;;;;;;;;;;5056676;28;20932;-71
2022/05/22 04:27:12;;;;;;;5.93;3.10;;;;;;;;;;5043317;28;20771;-71
2022/05/22 04:29:41;;;;;;;11.70;3.83;;;;;;;;;;5056996;28;20858;-71
2022/05/22 04:32:10;;;;;;;7.10;2.57;;;;;;;;;;5056488;28;20493;-70
2022/05/22 04:34:40;;;;;;;8.73;3.17;;;;;;;;;;5056920;28;20535;-71
2022/05/22 04:37:09;;;;;;;5.77;3.60;;;;;;;;;;5055985;28;20457;-70
2022/05/22 04:39:37;;;;;;;9.70;3.10;;;;;;;;;;5056870;28;20515;-69
2022/05/22 04:42:05;;;;;;;11.53;3.57;;;;;;;;;;5056666;28;20688;-71
2022/05/22 04:44:32;;;;;;;6.30;2.70;;;;;;;;;;5055408;28;20455;-71
2022/05/22 04:47:05;;;;;;;10.27;3.40;;;;;;;;;;5057453;28;20703;-70
2022/05/22 04:49:32;;;;;;;9.80;3.13;;;;;;;;;;5055908;28;20886;-71
2022/05/22 04:52:00;;;;;;;8.43;3.10;;;;;;;;;;5056078;28;20476;-71
2022/05/22 04:54:28;;;;;;;4.43;2.70;;;;;;;;;;5056642;28;20458;-71
2022/05/22 04:56:56;;;;;;;15.13;3.80;;;;;;;;;;5055762;28;20449;-71
2022/05/22 04:59:24;;;;;;;6.60;3.10;;;;;;;;;;5055737;28;20523;-72
2022/05/22 05:01:51;;;;;;;8.83;3.13;;;;;;;;;;5056765;28;20533;-70
2022/05/22 05:04:21;;;;;;;5.73;3.33;;;;;;;;;;5056254;28;20466;-70
2022/05/22 05:06:51;;;;;;;8.70;2.67;;;;;;;;;;5056828;28;20846;-70
2022/05/22 05:09:19;;;;;;;7.07;2.90;;;;;;;;;;5055903;28;20745;-70
2022/05/22 05:11:46;;;;;;;13.30;3.53;;;;;;;;;;5055345;28;20515;-71
2022/05/22 05:14:14;;;;;;;8.93;2.77;;;;;;;;;;5056507;28;20881;-71
2022/05/22 05:16:42;;;;;;;8.50;3.67;;;;;;;;;;5055920;28;20457;-71
2022/05/22 05:19:10;;;;;;;6.73;2.70;;;;;;;;;;5055601;28;20547;-71
2022/05/22 05:21:39;;;;;;;8.33;3.17;;;;;;;;;;5055970;28;20723;-70
2022/05/22 05:24:07;;;;;;;9.30;3.73;;;;;;;;;;5054810;28;20757;-71
2022/05/22 05:26:36;;;;;;;9.83;3.27;;;;;;;;;;5055771;28;20795;-71
2022/05/22 05:29:03;;;;;;;4.73;2.90;;;;;;;;;;5055783;28;20453;-71
2022/05/22 05:31:31;;;;;;;6.90;3.23;;;;;;;;;;5053957;28;20481;-70
2022/05/22 05:33:59;;;;;;;5.10;2.70;;;;;;;;;;5055379;28;20461;-71
2022/05/22 05:36:26;;;;;;;6.83;3.13;;;;;;;;;;5055699;28;20455;-71
2022/05/22 05:38:55;;;;;;;11.47;3.17;;;;;;;;;;5055172;28;20608;-70
2022/05/22 05:41:23;;;;;;;8.03;2.97;;;;;;;;;;5056284;28;20736;-69
2022/05/22 05:43:51;;;;;;;10.43;2.87;;;;;;;;;;5054989;28;20862;-71
2022/05/22 05:46:19;;;;;;;7.60;2.80;;;;;;;;;;5054650;28;20477;-71
2022/05/22 05:48:46;;;;;;;7.30;3.53;;;;;;;;;;5055562;28;20544;-71
2022/05/22 05:51:14;;;;;;;7.03;3.30;;;;;;;;;;5054398;28;20449;-71
2022/05/22 05:53:42;;;;;;;11.67;3.27;;;;;;;;;;5055076;28;20470;-70
2022/05/22 05:56:13;;;;;;;5.10;2.90;;;;;;;;;;5055589;28;20449;-71
2022/05/22 05:58:40;;;;;;;4.83;2.30;;;;;;;;;;5055071;28;20457;-70
2022/05/22 06:01:08;;;;;;;4.80;2.80;;;;;;;;;;5056219;28;20453;-71
2022/05/22 06:03:35;;;;;;;15.80;3.63;;;;;;;;;;5054663;28;20457;-72
2022/05/22 06:06:03;;;;;;;13.27;3.33;;;;;;;;;;5055698;28;20668;-71
2022/05/22 06:08:31;;;;;;;11.97;2.90;;;;;;;;;;5056052;28;20461;-70
2022/05/22 06:10:59;;;;;;;8.67;4.40;;;;;;;;;;5054847;28;20449;-71
2022/05/22 06:13:28;;;;;;;8.33;3.73;;;;;;;;;;5055154;28;20637;-71
2022/05/22 06:15:56;;;;;;;6.67;2.80;;;;;;;;;;5054683;28;20928;-70
2022/05/22 06:18:24;;;;;;;5.60;3.20;;;;;;;;;;5055248;28;20467;-71
2022/05/22 06:20:52;;;;;;;10.40;2.90;;;;;;;;;;5055655;28;20463;-71
2022/05/22 06:23:19;;;;;;;8.50;3.53;;;;;;;;;;5054465;28;20721;-71
2022/05/22 06:25:47;;;;;;;8.90;3.03;;;;;;;;;;5055298;28;20876;-71
2022/05/22 06:28:15;;;;;;;6.13;2.43;;;;;;;;;;5055226;28;20461;-71
2022/05/22 06:30:46;;;;;;;6.50;2.60;;;;;;;;;;5057324;28;20449;-71
2022/05/22 06:33:16;;;;;;;6.40;3.13;;;;;;;;;;5055801;28;20572;-71
2022/05/22 06:35:44;;;;;;;7.90;3.03;;;;;;;;;;5055440;28;20464;-71
2022/05/22 06:39:49;;;;;;;8.73;3.20;;;;;;;;;;5058296;28;20461;-69
2022/05/22 06:40:59;;;;;;;5.13;2.30;;;;;;;;;;5059190;28;20532;-72
2022/05/22 06:43:27;;;;;;;8.90;3.30;;;;;;;;;;5058922;28;21110;-72
2022/05/22 06:45:56;;;;;;;8.13;2.63;;;;;;;;;;5058838;28;20445;-71
2022/05/22 06:48:23;;;;;;;6.00;2.87;;;;;;;;;;5058433;28;20461;-71
2022/05/22 06:50:52;;;;;;;10.50;2.90;;;;;;;;;;5058407;28;20459;-71
2022/05/22 06:53:19;;;;;;;7.80;3.03;;;;;;;;;;5058015;28;20556;-72
2022/05/22 06:55:48;;;;;;;8.43;3.30;;;;;;;;;;5058115;28;20457;-71
2022/05/22 06:58:16;;;;;;;6.00;3.13;;;;;;;;;;5058619;28;20841;-71
2022/05/22 07:00:51;;;;;;;8.43;3.13;;;;;;;;;;5058734;28;20449;-71
2022/05/22 07:03:21;;;;;;;8.33;3.47;;;;;;;;;;5057293;28;20457;-71
2022/05/22 07:05:48;;;;;;;7.57;2.50;;;;;;;;;;5058105;28;20799;-71
2022/05/22 07:08:16;;;;;;;10.57;2.50;;;;;;;;;;5057457;28;20467;-71
2022/05/22 07:13:30;;;;;;;5.27;2.50;;;;;;;;;;5058065;28;20492;-71
2022/05/22 07:16:00;;;;;;;9.50;2.93;;;;;;;;;;5064918;28;20457;-71
2022/05/22 07:18:32;;;;;;;4.30;2.23;;;;;;;;;;5064186;28;20459;-72
2022/05/22 07:21:00;;;;;;;6.67;2.30;;;;;;;;;;5066655;28;20511;-71
2022/05/22 07:23:28;;;;;;;6.70;2.37;;;;;;;;;;5071363;28;20700;-71
2022/05/22 07:25:56;;;;;;;8.47;2.40;;;;;;;;;;5071952;28;20496;-71
2022/05/22 07:28:23;;;;;;;5.60;2.50;;;;;;;;;;5076485;28;20468;-71
2022/05/22 07:30:51;;;;;;;6.03;2.47;;;;;;;;;;5076504;28;20540;-70
2022/05/22 07:33:19;;;;;;;7.57;3.10;;;;;;;;;;5075431;28;20484;-71
2022/05/22 07:35:56;;;;;;;8.80;3.63;;;;;;;;;;5076827;28;20492;-72
2022/05/22 07:38:23;;;;;;;5.57;2.63;;;;;;;;;;5077055;28;20444;-70
2022/05/22 07:40:51;;;;;;;6.60;1.70;;;;;;;;;;5075972;28;20462;-71
2022/05/22 07:43:19;;;;;;;8.40;1.93;;;;;;;;;;5076265;28;20868;-71
2022/05/22 07:45:46;;;;;;;7.90;2.10;;;;;;;;;;5075612;28;20874;-71
2022/05/22 07:48:17;;;;;;;5.60;2.03;;;;;;;;;;5068313;28;20469;-72
2022/05/22 07:50:44;;;;;;;5.60;1.80;;;;;;;;;;5056806;28;20461;-72
2022/05/22 07:53:14;;;;;;;6.20;1.67;;;;;;;;;;5058075;28;20570;-71
2022/05/22 07:55:41;;;;;;;5.20;1.60;;;;;;;;;;5056948;28;20468;-70
2022/05/22 07:58:09;;;;;;;8.17;1.43;;;;;;;;;;5055449;28;20453;-70
2022/05/22 08:00:39;;;;;;;6.90;1.70;;;;;;;;;;5055219;28;20452;-70
2022/05/22 08:03:10;;;;;;;11.03;6.80;;;;;;;;;;5055659;28;20446;-71
2022/05/22 08:05:38;;;;;;;9.37;2.40;;;;;;;;;;5056116;28;20457;-71
2022/05/22 08:08:06;;;;;;;9.50;2.30;;;;;;;;;;5055976;28;20462;-71
2022/05/22 08:10:36;;;;;;;5.50;2.67;;;;;;;;;;5057428;28;20450;-72
2022/05/22 08:13:05;;;;;;;3.63;1.40;;;;;;;;;;5056162;28;20489;-71
2022/05/22 08:15:33;;;;;;;7.13;1.37;;;;;;;;;;5055895;28;20446;-70
2022/05/22 08:18:02;;;;;;;9.77;1.60;;;;;;;;;;5055856;28;20477;-71
2022/05/22 08:20:30;;;;;;;5.13;1.40;;;;;;;;;;5055353;28;20558;-70
2022/05/22 08:23:03;;;;;;;4.40;1.57;;;;;;;;;;5059141;28;20461;-69
2022/05/22 08:25:31;;;;;;;8.80;1.77;;;;;;;;;;5076816;28;20457;-71
2022/05/22 08:28:00;;;;;;;8.57;1.60;;;;;;;;;;5076614;28;20461;-71
2022/05/22 08:30:29;;;;;;;7.43;1.50;;;;;;;;;;5076145;28;20452;-71
2022/05/22 08:32:58;;;;;;;5.47;1.23;;;;;;;;;;5068638;28;20503;-71
2022/05/22 08:35:26;;;;;;;12.03;2.17;;;;;;;;;;5076798;28;20460;-71
2022/05/22 08:37:56;;;;;;;4.00;1.50;;;;;;;;;;5075652;28;20445;-72
2022/05/22 08:40:25;;;;;;;5.67;2.00;;;;;;;;;;5076669;28;20783;-70
2022/05/22 08:42:56;;;;;;;2.80;1.00;;;;;;;;;;5059732;28;20465;-70
2022/05/22 08:45:28;;;;;;;3.20;1.13;;;;;;;;;;5057250;28;20527;-71
2022/05/22 08:48:02;;;;;;;2.60;0.90;;;;;;;;;;5077036;28;20452;-69
2022/05/22 08:50:30;;;;;;;4.53;1.27;;;;;;;;;;5067612;28;20465;-71
2022/05/22 08:52:59;;;;;;;5.07;1.27;;;;;;;;;;5063290;28;21089;-71
2022/05/22 08:58:56;;;;;;;5.53;1.13;;;;;;;;;;5075946;28;20770;-71
2022/05/22 09:01:07;;;;;;;13.20;1.60;;;;;;;;;;5057558;28;20425;-70
2022/05/22 09:03:38;;;;;;;4.73;1.50;;;;;;;;;;5064565;28;20453;-70
2022/05/22 09:06:07;;;;;;;7.40;1.80;;;;;;;;;;5073557;28;20510;-70
2022/05/22 09:08:40;;;;;;;5.40;1.43;;;;;;;;;;5073249;28;20467;-69
2022/05/22 09:11:09;;;;;;;4.47;1.50;;;;;;;;;;5056452;28;20430;-69
2022/05/22 09:13:40;;;;;;;1.83;0.83;;;;;;;;;;5053577;28;20754;-70
2022/05/22 09:16:13;;;;;;;2.70;1.20;;;;;;;;;;5054186;28;20449;-70
2022/05/22 09:18:45;;;;;;;2.53;1.00;;;;;;;;;;5055446;28;20534;-71
2022/05/22 09:21:21;;;;;;;3.43;0.80;;;;;;;;;;5055082;28;20517;-70
2022/05/22 09:23:57;;;;;;;5.63;1.20;;;;;;;;;;5055645;28;20461;-71
2022/05/22 09:26:29;;;;;;;4.67;1.00;;;;;;;;;;5054665;28;20552;-71
2022/05/22 09:29:02;;;;;;;2.57;0.90;;;;;;;;;;5073268;28;20464;-71
2022/05/22 09:31:36;;;;;;;5.60;1.67;;;;;;;;;;5075204;28;20472;-70
2022/05/22 09:34:08;;;;;;;2.47;0.90;;;;;;;;;;5072987;28;20488;-71
2022/05/22 09:36:40;;;;;;;2.80;0.97;;;;;;;;;;5074445;28;20485;-71
2022/05/22 09:39:19;;;;;;;3.50;1.30;;;;;;;;;;5073867;28;20445;-71
2022/05/22 09:41:57;;;;;;;4.20;1.03;;;;;;;;;;5072955;28;20469;-72
2022/05/22 09:44:36;;;;;;;6.43;1.33;;;;;;;;;;5072665;28;20441;-71
2022/05/22 09:47:12;;;;;;;4.23;1.10;;;;;;;;;;5061984;28;20461;-71
2022/05/22 09:49:49;;;;;;;3.53;0.93;;;;;;;;;;5054347;28;20461;-71
2022/05/22 09:52:22;;;;;;;3.53;0.80;;;;;;;;;;5059811;28;20884;-71
2022/05/22 09:54:58;;;;;;;2.30;1.00;;;;;;;;;;5075020;28;20468;-72
2022/05/22 09:57:33;;;;;;;9.23;4.00;;;;;;;;;;5075322;28;20470;-73
2022/05/22 10:00:11;;;;;;;2.10;0.90;;;;;;;;;;5076278;28;20533;-72
2022/05/22 10:02:43;;;;;;;2.87;0.80;;;;;;;;;;5073879;28;20548;-70
2022/05/22 10:05:17;;;;;;;2.03;0.80;;;;;;;;;;5076897;28;20440;-71
2022/05/22 10:07:50;;;;;;;2.20;0.90;;;;;;;;;;5075822;28;20457;-73
2022/05/22 10:10:22;;;;;;;3.27;1.30;;;;;;;;;;5059896;28;20449;-72
2022/05/22 10:12:53;;;;;;;3.70;1.30;;;;;;;;;;5067169;28;20543;-72
2022/05/22 10:15:28;;;;;;;2.30;0.80;;;;;;;;;;5066671;28;20576;-71
2022/05/22 10:18:02;;;;;;;3.17;1.03;;;;;;;;;;5068489;28;20456;-71
2022/05/22 10:20:35;;;;;;;3.10;1.00;;;;;;;;;;5062446;28;20445;-72
2022/05/22 10:23:06;;;;;;;4.30;1.20;;;;;;;;;;5068783;28;20446;-70
2022/05/22 10:25:41;;;;;;;8.30;1.43;;;;;;;;;;5066000;28;20884;-72
2022/05/22 10:28:12;;;;;;;3.40;0.97;;;;;;;;;;5068005;28;20453;-71
2022/05/22 10:30:42;;;;;;;5.00;1.27;;;;;;;;;;5068041;28;20440;-71
2022/05/22 10:33:19;;;;;;;3.93;0.87;;;;;;;;;;5066775;28;21142;-72
2022/05/22 10:35:49;;;;;;;3.10;1.33;;;;;;;;;;5066947;28;20540;-71
2022/05/22 10:38:22;;;;;;;2.37;0.90;;;;;;;;;;5067067;28;20453;-71
2022/05/22 10:43:36;;;;;;;3.87;1.50;;;;;;;;;;5062737;28;20492;-71
2022/05/22 10:46:04;;;;;;;3.00;1.10;;;;;;;;;;5068287;28;20836;-71
2022/05/22 10:48:36;;;;;;;4.50;0.87;;;;;;;;;;5065752;28;20485;-72
2022/05/22 10:51:06;;;;;;;2.80;0.80;;;;;;;;;;5066728;28;20456;-72
2022/05/22 10:53:35;;;;;;;3.77;0.90;;;;;;;;;;5065368;28;20488;-72
2022/05/22 10:56:05;;;;;;;2.00;0.80;;;;;;;;;;5067532;28;20441;-71
2022/05/22 10:58:33;;;;;;;4.13;1.10;;;;;;;;;;5060822;28;20460;-70
2022/05/22 11:01:02;;;;;;;3.77;1.10;;;;;;;;;;5067742;28;20444;-71
2022/05/22 11:03:32;;;;;;;3.03;1.03;;;;;;;;;;5057681;28;20880;-71
2022/05/22 11:06:03;;;;;;;3.40;1.40;;;;;;;;;;5072538;28;20476;-71
2022/05/22 11:08:32;;;;;;;2.60;0.80;;;;;;;;;;5059263;28;20470;-70
2022/05/22 11:11:12;;;;;;;2.80;1.00;;;;;;;;;;5067807;28;20521;-71
2022/05/22 11:13:39;;;;;;;7.70;4.27;;;;;;;;;;5063193;28;20568;-72
2022/05/22 11:16:18;;;;;;;6.20;1.13;;;;;;;;;;5057132;28;20449;-72
2022/05/22 11:18:45;;;;;;;5.97;1.83;;;;;;;;;;5058919;28;20464;-72
2022/05/22 11:21:19;;;;;;;2.33;0.90;;;;;;;;;;5076883;28;20456;-71
2022/05/22 11:23:55;;;;;;;2.60;0.83;;;;;;;;;;5073413;28;20647;-71
2022/05/22 11:26:31;;;;;;;3.20;0.80;;;;;;;;;;5062843;28;20731;-71
2022/05/22 11:29:12;;;;;;;4.20;1.30;;;;;;;;;;5059354;28;20453;-72
2022/05/22 11:31:45;;;;;;;5.07;1.87;;;;;;;;;;5064935;28;20453;-70
2022/05/22 11:34:20;;;;;;;2.13;0.80;;;;;;;;;;5075722;28;20480;-71
2022/05/22 11:36:57;;;;;;;5.07;2.10;;;;;;;;;;5073386;28;20476;-70
2022/05/22 11:39:36;;;;;;;2.20;0.80;;;;;;;;;;5056697;28;20881;-71
2022/05/22 11:42:08;;;;;;;2.20;0.70;;;;;;;;;;5059739;28;20538;-71
2022/05/22 11:45:03;;;;;;;4.57;1.20;;;;;;;;;;5064840;28;20485;-71
2022/05/22 11:47:35;;;;;;;2.60;0.80;;;;;;;;;;5030084;28;21082;-71
2022/05/22 11:50:07;;;;;;;2.00;0.80;;;;;;;;;;5077259;28;20725;-72
2022/05/22 11:52:57;;;;;;;3.50;0.83;;;;;;;;;;5072921;28;20526;-72
2022/05/22 11:55:33;;;;;;;3.27;1.60;;;;;;;;;;5074426;28;20466;-72
2022/05/22 11:58:10;;;;;;;2.50;0.70;;;;;;;;;;5056423;28;21053;-71
2022/05/22 12:00:40;;;;;;;3.03;0.80;;;;;;;;;;5056261;28;20711;-71
2022/05/22 12:03:26;;;;;;;3.37;0.90;;;;;;;;;;5056638;28;20457;-69
2022/05/22 12:06:02;;;;;;;5.20;1.07;;;;;;;;;;5060191;28;20463;-72
2022/05/22 12:08:52;;;;;;;2.47;0.97;;;;;;;;;;5075317;28;20456;-71
2022/05/22 12:11:25;;;;;;;4.63;0.80;;;;;;;;;;5076311;28;20767;-71
2022/05/22 12:13:55;;;;;;;5.10;1.30;;;;;;;;;;5075721;28;20565;-71
2022/05/22 12:16:24;;;;;;;2.73;0.80;;;;;;;;;;5071251;28;20444;-72
2022/05/22 12:19:06;;;;;;;2.40;0.90;;;;;;;;;;5053744;28;20672;-71
2022/05/22 12:21:41;;;;;;;3.20;0.93;;;;;;;;;;5055796;28;20690;-71
2022/05/22 12:24:15;;;;;;;2.67;0.90;;;;;;;;;;5055903;28;20459;-71
2022/05/22 12:26:46;;;;;;;2.33;0.80;;;;;;;;;;5056716;28;20453;-71
2022/05/22 12:29:16;;;;;;;6.03;1.80;;;;;;;;;;5055986;28;20608;-70
2022/05/22 12:31:48;;;;;;;4.43;1.60;;;;;;;;;;5054903;28;21055;-71
2022/05/22 12:34:19;;;;;;;3.27;0.90;;;;;;;;;;5052642;28;20547;-71
2022/05/22 12:36:49;;;;;;;3.00;1.00;;;;;;;;;;5054565;28;20448;-71
2022/05/22 12:39:25;;;;;;;3.93;1.20;;;;;;;;;;5055717;28;20875;-70
2022/05/22 12:41:57;;;;;;;3.53;1.90;;;;;;;;;;5059556;28;20904;-71
2022/05/22 12:44:28;;;;;;;2.20;1.03;;;;;;;;;;5073139;28;20533;-70
2022/05/22 12:46:56;;;;;;;2.60;1.23;;;;;;;;;;5075008;28;20573;-70
2022/05/22 12:49:33;;;;;;;2.10;0.83;;;;;;;;;;5074492;28;20457;-70
2022/05/22 12:52:02;;;;;;;2.20;0.80;;;;;;;;;;5075713;28;20993;-70
2022/05/22 12:54:35;;;;;;;5.63;1.10;;;;;;;;;;5072202;28;20954;-69
2022/05/22 12:57:16;;;;;;;2.20;0.80;;;;;;;;;;5073928;28;20453;-68
2022/05/22 13:00:01;;;;;;;2.40;0.90;;;;;;;;;;5072792;28;20521;-70
2022/05/22 13:02:37;;;;;;;3.27;1.00;;;;;;;;;;5073633;28;20552;-71
2022/05/22 13:05:17;;;;;;;3.13;0.80;;;;;;;;;;5074024;28;20730;-70
2022/05/22 13:07:45;;;;;;;2.47;0.80;;;;;;;;;;5073104;28;20523;-70
2022/05/22 13:10:26;;;;;;;4.80;0.70;;;;;;;;;;5073970;28;20472;-70
2022/05/22 13:13:00;;;;;;;4.13;1.20;;;;;;;;;;5072792;28;20452;-70
2022/05/22 13:15:29;;;;;;;4.20;0.83;;;;;;;;;;5074117;28;20570;-69
2022/05/22 13:18:11;;;;;;;3.10;1.00;;;;;;;;;;5073981;28;20456;-70
2022/05/22 13:20:48;;;;;;;2.73;0.90;;;;;;;;;;5054916;28;20770;-69
2022/05/22 13:23:30;;;;;;;2.40;0.97;;;;;;;;;;5055459;28;20453;-70
2022/05/22 13:26:02;;;;;;;3.13;1.20;;;;;;;;;;5052863;28;20465;-70
2022/05/22 13:28:31;;;;;;;3.13;0.80;;;;;;;;;;5060207;28;20464;-71
2022/05/22 13:31:01;;;;;;;5.47;2.03;;;;;;;;;;5069613;28;20534;-71
2022/05/22 13:33:29;;;;;;;2.73;0.80;;;;;;;;;;5070722;28;20448;-70
2022/05/22 13:36:00;;;;;;;2.90;0.80;;;;;;;;;;5072497;28;20460;-70
2022/05/22 13:38:27;;;;;;;3.23;0.70;;;;;;;;;;5060117;28;20453;-70
2022/05/22 13:41:06;;;;;;;14.37;9.07;;;;;;;;;;5065487;28;20463;-71
2022/05/22 13:43:48;;;;;;;2.80;1.00;;;;;;;;;;5054612;28;20453;-70
2022/05/22 13:46:48;;;;;;;2.33;0.70;;;;;;;;;;5053505;28;20480;-70
2022/05/22 13:49:28;;;;;;;3.20;1.03;;;;;;;;;;5055073;28;20465;-69
2022/05/22 13:54:54;;;;;;;3.67;1.10;;;;;;;;;;5061500;28;20514;-71
2022/05/22 13:57:25;;;;;;;4.50;1.10;;;;;;;;;;5062804;28;20888;-71
2022/05/22 13:59:57;;;;;;;2.37;0.70;;;;;;;;;;5055775;28;20485;-71
2022/05/22 14:02:31;;;;;;;1.80;0.67;;;;;;;;;;5068110;28;20453;-70
2022/05/22 14:04:59;;;;;;;2.67;1.10;;;;;;;;;;5061351;28;20445;-70
2022/05/22 14:07:30;;;;;;;2.73;1.23;;;;;;;;;;5062263;28;20804;-71
2022/05/22 14:09:59;;;;;;;4.23;1.10;;;;;;;;;;5054725;28;20461;-70
2022/05/22 14:12:31;;;;;;;3.10;0.80;;;;;;;;;;5059931;28;20472;-70
2022/05/22 14:15:12;;;;;;;1.90;1.00;;;;;;;;;;5068808;28;20521;-70
2022/05/22 14:17:43;;;;;;;4.23;1.20;;;;;;;;;;5074710;28;20476;-71
2022/05/22 14:20:16;;;;;;;2.73;0.80;;;;;;;;;;5076299;28;20496;-70
2022/05/22 14:22:46;;;;;;;3.00;0.93;;;;;;;;;;5086639;28;20495;-71
2022/05/22 14:25:19;;;;;;;2.67;0.80;;;;;;;;;;5075929;28;20503;-70
2022/05/22 14:27:49;;;;;;;2.40;0.70;;;;;;;;;;5084300;28;20845;-70
2022/05/22 14:30:27;;;;;;;2.10;0.83;;;;;;;;;;5080240;28;20942;-69
2022/05/22 14:33:07;;;;;;;1.80;0.70;;;;;;;;;;5084451;28;20435;-70
2022/05/22 14:35:37;;;;;;;2.60;0.90;;;;;;;;;;5081111;28;20646;-69
2022/05/22 14:38:17;;;;;;;2.93;0.80;;;;;;;;;;5085783;28;20509;-69
2022/05/22 14:40:48;;;;;;;3.00;0.70;;;;;;;;;;5076234;28;20630;-71
2022/05/22 14:43:17;;;;;;;2.63;0.70;;;;;;;;;;5074983;28;20464;-70
2022/05/22 14:45:53;;;;;;;3.23;0.80;;;;;;;;;;5074500;28;21047;-70
2022/05/22 14:48:22;;;;;;;2.97;0.80;;;;;;;;;;5075651;28;20448;-72
2022/05/22 14:50:51;;;;;;;2.40;0.93;;;;;;;;;;5074140;28;20480;-72
2022/05/22 14:53:22;;;;;;;2.90;0.87;;;;;;;;;;5056905;28;20460;-72
2022/05/22 14:55:51;;;;;;;3.47;1.33;;;;;;;;;;5066483;28;21113;-71
2022/05/22 14:58:23;;;;;;;2.70;0.87;;;;;;;;;;5074462;28;20745;-73
2022/05/22 15:00:56;;;;;;;2.63;0.80;;;;;;;;;;5076204;28;20535;-72
2022/05/22 15:03:25;;;;;;;2.33;0.80;;;;;;;;;;5075116;28;20460;-71
2022/05/22 15:05:54;;;;;;;2.70;0.87;;;;;;;;;;5075124;28;20529;-71
2022/05/22 15:08:27;;;;;;;4.30;0.83;;;;;;;;;;5075630;28;20760;-71
2022/05/22 15:10:55;;;;;;;2.47;0.90;;;;;;;;;;5075080;28;20444;-71
2022/05/22 15:13:29;;;;;;;2.90;1.20;;;;;;;;;;5074888;28;20508;-72
2022/05/22 15:16:12;;;;;;;3.73;0.90;;;;;;;;;;5074223;28;20474;-69
2022/05/22 15:21:30;;;;;;;2.53;0.80;;;;;;;;;;5075329;28;20860;-71
2022/05/22 15:26:45;;;;;;;2.70;0.90;;;;;;;;;;5075979;28;20432;-71